createdAt,value
2019-01-03T00:00:11.358Z,1.82
2019-01-03T00:02:41.565Z,0.95
2019-01-03T00:05:27.871Z,1.10
2019-01-03T00:08:14.189Z,1.22
2019-01-03T00:10:47.271Z,0.72
2019-01-03T00:13:33.770Z,0.98
2019-01-03T00:16:06.912Z,0.95
2019-01-03T00:18:37.111Z,1.00
2019-01-03T00:21:23.764Z,1.10
2019-01-03T00:24:02.911Z,1.20
2019-01-03T00:26:45.039Z,0.80
2019-01-03T00:29:20.724Z,1.07
2019-01-03T00:32:06.806Z,1.10
2019-01-03T00:34:37.037Z,0.90
2019-01-03T00:37:16.135Z,1.20
2019-01-03T00:40:01.403Z,1.42
2019-01-03T00:42:47.903Z,0.82
2019-01-03T00:45:26.964Z,1.00
2019-01-03T00:47:59.549Z,1.32
2019-01-03T00:50:29.712Z,0.80
2019-01-03T00:53:11.891Z,1.00
2019-01-03T00:55:48.054Z,0.82
2019-01-03T00:58:34.600Z,0.70
2019-01-03T01:01:04.768Z,1.00
2019-01-03T01:03:43.729Z,1.30
2019-01-03T01:06:30.297Z,1.00
2019-01-03T01:09:15.465Z,0.97
2019-01-03T01:11:45.635Z,1.17
2019-01-03T01:14:15.904Z,1.45
2019-01-03T01:16:52.253Z,1.02
2019-01-03T01:19:31.510Z,1.05
2019-01-03T01:22:04.597Z,1.90
2019-01-03T01:24:52.969Z,0.80
2019-01-03T01:27:23.134Z,1.00
2019-01-03T01:29:53.323Z,0.90
2019-01-03T01:32:26.377Z,1.40
2019-01-03T01:34:59.286Z,1.15
2019-01-03T01:37:41.493Z,1.10
2019-01-03T01:40:11.690Z,1.02
2019-01-03T01:42:44.569Z,0.90
2019-01-03T01:45:23.746Z,0.75
2019-01-03T01:48:06.211Z,1.27
2019-01-03T01:53:44.503Z,1.00
2019-01-03T01:56:14.705Z,1.98
2019-01-03T01:58:59.676Z,1.15
2019-01-03T02:01:46.452Z,1.17
2019-01-03T02:04:19.038Z,0.95
2019-01-03T02:06:58.284Z,0.60
2019-01-03T02:09:34.246Z,1.10
2019-01-03T02:12:20.623Z,0.78
2019-01-03T02:14:53.875Z,1.20
2019-01-03T02:17:23.975Z,0.97
2019-01-03T02:20:01.829Z,1.03
2019-01-03T02:22:37.607Z,0.83
2019-01-03T02:25:13.446Z,1.27
2019-01-03T02:27:55.814Z,1.00
2019-01-03T02:30:35.050Z,1.90
2019-01-03T02:33:21.281Z,1.43
2019-01-03T02:38:38.961Z,1.17
2019-01-03T02:41:15.044Z,1.10
2019-01-03T02:44:01.398Z,1.30
2019-01-03T02:46:43.774Z,1.07
2019-01-03T02:49:16.518Z,1.20
2019-01-03T02:51:55.409Z,0.87
2019-01-03T02:54:25.496Z,1.30
2019-01-03T02:57:12.109Z,0.70
2019-01-03T02:59:44.890Z,2.33
2019-01-03T03:02:14.988Z,1.93
2019-01-03T03:04:47.718Z,1.23
2019-01-03T03:07:32.839Z,1.10
2019-01-03T03:10:02.919Z,0.90
2019-01-03T03:12:33.062Z,1.10
2019-01-03T03:15:14.968Z,1.23
2019-01-03T03:17:53.687Z,1.30
2019-01-03T03:20:23.773Z,0.80
2019-01-03T03:22:53.885Z,1.07
2019-01-03T03:25:23.974Z,1.00
2019-01-03T03:28:03.076Z,1.00
2019-01-03T03:30:35.583Z,1.20
2019-01-03T03:33:11.652Z,0.60
2019-01-03T03:35:44.227Z,0.97
2019-01-03T03:38:30.751Z,0.93
2019-01-03T03:41:09.758Z,0.80
2019-01-03T03:43:39.873Z,1.07
2019-01-03T03:46:09.951Z,1.20
2019-01-03T03:48:48.805Z,1.30
2019-01-03T03:51:21.326Z,0.80
2019-01-03T03:53:51.422Z,1.30
2019-01-03T03:56:33.811Z,0.90
2019-01-03T03:59:03.920Z,1.50
2019-01-03T04:01:49.316Z,1.67
2019-01-03T04:04:34.729Z,1.60
2019-01-03T04:07:07.399Z,1.27
2019-01-03T04:09:37.506Z,1.63
2019-01-03T04:12:07.591Z,1.57
2019-01-03T04:14:46.675Z,1.50
2019-01-03T04:17:22.815Z,0.90
2019-01-03T04:19:52.920Z,1.50
2019-01-03T04:22:25.903Z,1.40
2019-01-03T04:24:58.436Z,1.30
2019-01-03T04:27:28.513Z,1.37
2019-01-03T04:30:14.754Z,0.67
2019-01-03T04:32:47.553Z,1.37
2019-01-03T04:35:33.481Z,0.93
2019-01-03T04:38:18.754Z,1.27
2019-01-03T04:40:54.770Z,1.40
2019-01-03T04:43:33.661Z,1.77
2019-01-03T04:46:06.483Z,1.00
2019-01-03T04:48:42.041Z,1.30
2019-01-03T04:51:27.360Z,1.23
2019-01-03T04:54:13.831Z,0.73
2019-01-03T04:56:43.933Z,0.80
2019-01-03T04:59:14.018Z,1.43
2019-01-03T05:02:06.253Z,0.80
2019-01-03T05:04:38.745Z,1.30
2019-01-03T05:07:26.982Z,1.07
2019-01-03T05:10:13.551Z,2.03
2019-01-03T05:12:52.621Z,1.10
2019-01-03T05:15:25.604Z,0.90
2019-01-03T05:18:11.834Z,1.47
2019-01-03T05:20:53.919Z,1.27
2019-01-03T05:23:36.033Z,1.63
2019-01-03T05:26:06.116Z,1.17
2019-01-03T05:28:51.613Z,1.50
2019-01-03T05:31:21.703Z,1.10
2019-01-03T05:33:57.819Z,1.70
2019-01-03T05:36:27.900Z,0.90
2019-01-03T05:39:03.639Z,1.20
2019-01-03T05:41:45.726Z,1.30
2019-01-03T05:44:24.687Z,0.93
2019-01-03T05:47:06.685Z,1.00
2019-01-03T05:49:53.019Z,1.43
2019-01-03T05:52:23.088Z,0.87
2019-01-03T05:55:11.727Z,1.60
2019-01-03T05:57:58.208Z,1.23
2019-01-03T06:00:44.183Z,1.33
2019-01-03T06:03:17.178Z,1.30
2019-01-03T06:05:47.264Z,2.60
2019-01-03T06:08:29.708Z,0.97
2019-01-03T06:11:12.052Z,0.70
2019-01-03T06:13:48.131Z,1.20
2019-01-03T06:16:20.914Z,2.20
2019-01-03T06:19:07.365Z,1.40
2019-01-03T06:21:37.450Z,1.20
2019-01-03T06:24:19.069Z,1.07
2019-01-03T06:27:05.659Z,1.00
2019-01-03T06:29:38.227Z,0.90
2019-01-03T06:32:17.521Z,1.67
2019-01-03T06:35:03.901Z,1.43
2019-01-03T06:37:36.897Z,0.80
2019-01-03T06:40:25.739Z,0.90
2019-01-03T06:43:07.604Z,0.70
2019-01-03T06:45:37.709Z,1.00
2019-01-03T06:48:14.258Z,1.10
2019-01-03T06:51:00.640Z,1.00
2019-01-03T06:53:47.204Z,0.80
2019-01-03T06:56:26.441Z,1.07
2019-01-03T06:58:59.156Z,0.90
2019-01-03T07:01:29.264Z,1.13
2019-01-03T07:03:59.343Z,0.60
2019-01-03T07:06:38.508Z,0.80
2019-01-03T07:09:17.801Z,0.60
2019-01-03T07:11:47.903Z,0.87
2019-01-03T07:14:33.363Z,0.97
2019-01-03T07:17:21.495Z,0.80
2019-01-03T07:20:09.617Z,1.00
2019-01-03T07:22:39.726Z,0.83
2019-01-03T07:25:09.811Z,1.50
2019-01-03T07:27:48.716Z,1.27
2019-01-03T07:30:37.179Z,1.43
2019-01-03T07:33:07.284Z,1.07
2019-01-03T07:35:53.687Z,1.00
2019-01-03T07:38:32.461Z,1.00
2019-01-03T07:41:05.529Z,1.07
2019-01-03T07:43:41.394Z,0.83
2019-01-03T07:46:13.955Z,0.87
2019-01-03T07:48:52.923Z,0.70
2019-01-03T07:51:32.001Z,0.53
2019-01-03T07:54:02.087Z,0.97
2019-01-03T07:56:41.309Z,1.00
2019-01-03T07:59:27.549Z,0.90
2019-01-03T08:02:16.163Z,0.70
2019-01-03T08:04:52.132Z,1.40
2019-01-03T08:07:31.161Z,0.90
2019-01-03T08:10:04.284Z,0.77
2019-01-03T08:12:50.533Z,1.53
2019-01-03T08:15:23.594Z,1.27
2019-01-03T08:17:59.585Z,1.23
2019-01-03T08:20:45.909Z,2.00
2019-01-03T08:23:21.569Z,1.27
2019-01-03T08:26:07.765Z,1.30
2019-01-03T08:28:38.140Z,0.90
2019-01-03T08:31:25.027Z,0.90
2019-01-03T08:33:55.137Z,1.10
2019-01-03T08:36:36.727Z,1.07
2019-01-03T08:39:17.163Z,1.23
2019-01-03T08:41:49.985Z,1.23
2019-01-03T08:44:36.657Z,0.97
2019-01-03T08:47:12.243Z,1.30
2019-01-03T08:49:45.285Z,1.43
2019-01-03T08:52:27.628Z,1.07
2019-01-03T08:54:57.742Z,1.60
2019-01-03T08:57:42.680Z,1.90
2019-01-03T09:00:25.247Z,1.50
2019-01-03T09:03:12.044Z,1.70
2019-01-03T09:05:58.311Z,1.30
2019-01-03T09:08:28.413Z,1.50
2019-01-03T09:11:15.148Z,1.47
2019-01-03T09:13:54.233Z,1.30
2019-01-03T09:16:30.222Z,1.30
2019-01-03T09:19:12.355Z,1.20
2019-01-03T09:21:42.437Z,1.63
2019-01-03T09:24:28.708Z,2.23
2019-01-03T09:27:15.024Z,2.00
2019-01-03T09:29:45.129Z,2.17
2019-01-03T09:32:31.052Z,1.93
2019-01-03T09:35:16.093Z,1.27
2019-01-03T09:37:46.187Z,1.93
2019-01-03T09:40:31.409Z,1.00
2019-01-03T09:43:07.716Z,2.43
2019-01-03T09:45:43.934Z,1.63
2019-01-03T09:48:06.479Z,1.30
2019-01-03T09:50:34.948Z,0.80
2019-01-03T09:53:03.381Z,0.80
2019-01-03T09:55:31.848Z,0.93
2019-01-03T09:58:00.284Z,1.60
2019-01-03T10:00:28.775Z,1.17
2019-01-03T10:02:57.211Z,1.40
2019-01-03T10:05:25.659Z,1.37
2019-01-03T10:07:54.125Z,1.27
2019-01-03T10:10:22.564Z,1.40
2019-01-03T10:12:51.032Z,1.60
2019-01-03T10:15:19.475Z,1.93
2019-01-03T10:17:47.941Z,1.70
2019-01-03T10:20:16.381Z,1.07
2019-01-03T10:22:44.844Z,1.13
2019-01-03T10:25:13.292Z,1.90
2019-01-03T10:27:41.751Z,1.37
2019-01-03T10:30:10.187Z,2.33
2019-01-03T10:32:38.667Z,2.37
2019-01-03T10:35:07.108Z,2.73
2019-01-03T10:37:35.579Z,2.37
2019-01-03T10:40:07.407Z,1.67
2019-01-03T10:42:35.879Z,1.30
2019-01-03T10:45:05.460Z,1.20
2019-01-03T10:47:33.926Z,2.17
2019-01-03T10:50:02.362Z,1.70
2019-01-03T10:52:30.833Z,1.40
2019-01-03T10:54:59.274Z,2.10
2019-01-03T10:57:27.740Z,2.20
2019-01-03T10:59:56.179Z,2.03
2019-01-03T11:02:24.640Z,2.33
2019-01-03T11:04:53.074Z,2.07
2019-01-03T11:07:21.520Z,2.00
2019-01-03T11:09:49.980Z,2.33
2019-01-03T11:12:18.419Z,2.07
2019-01-03T11:14:46.882Z,2.37
2019-01-03T11:17:15.326Z,2.40
2019-01-03T11:19:43.805Z,2.30
2019-01-03T11:22:12.237Z,2.80
2019-01-03T11:24:40.702Z,1.90
2019-01-03T11:27:09.145Z,2.23
2019-01-03T11:29:37.614Z,2.90
2019-01-03T11:32:06.053Z,3.00
2019-01-03T11:34:34.519Z,3.50
2019-01-03T11:37:02.961Z,2.00
2019-01-03T11:39:31.429Z,2.17
2019-01-03T11:41:59.874Z,1.97
2019-01-03T11:44:28.341Z,2.40
2019-01-03T11:46:56.800Z,1.70
2019-01-03T11:49:25.266Z,2.00
2019-01-03T11:51:53.713Z,1.80
2019-01-03T11:54:22.172Z,2.30
2019-01-03T11:56:50.681Z,2.17
2019-01-03T11:59:19.146Z,2.83
2019-01-03T12:01:47.829Z,6.23
2019-01-03T12:04:16.296Z,9.27
2019-01-03T12:06:44.751Z,12.33
2019-01-03T12:09:13.225Z,10.27
2019-01-03T12:11:41.671Z,6.87
2019-01-03T12:14:10.136Z,4.97
2019-01-03T12:16:38.579Z,3.70
2019-01-03T12:19:07.103Z,3.17
2019-01-03T12:21:35.543Z,2.90
2019-01-03T12:24:03.979Z,2.33
2019-01-03T12:26:32.446Z,2.00
2019-01-03T12:29:00.883Z,2.33
2019-01-03T12:31:29.356Z,1.00
2019-01-03T12:33:57.796Z,1.13
2019-01-03T12:36:26.264Z,1.23
2019-01-03T12:38:54.705Z,1.10
2019-01-03T12:41:23.171Z,1.07
2019-01-03T12:43:51.685Z,0.83
2019-01-03T12:46:20.148Z,1.20
2019-01-03T12:48:48.587Z,0.80
2019-01-03T12:51:17.048Z,0.70
2019-01-03T12:53:45.489Z,3.70
2019-01-03T12:56:13.957Z,1.23
2019-01-03T12:58:42.392Z,1.40
2019-01-03T13:01:10.858Z,0.90
2019-01-03T13:03:39.335Z,0.80
2019-01-03T13:06:07.803Z,0.80
2019-01-03T13:08:36.234Z,0.80
2019-01-03T13:11:04.968Z,0.60
2019-01-03T13:13:33.421Z,0.50
2019-01-03T13:16:01.891Z,0.80
2019-01-03T13:18:32.682Z,0.80
2019-01-03T13:21:01.139Z,1.07
2019-01-03T13:23:29.585Z,1.20
2019-01-03T13:25:58.049Z,1.00
2019-01-03T13:28:26.490Z,0.90
2019-01-03T13:30:54.957Z,1.00
2019-01-03T13:33:23.397Z,0.90
2019-01-03T13:35:51.831Z,1.30
2019-01-03T13:38:20.609Z,0.90
2019-01-03T13:40:49.048Z,0.60
2019-01-03T13:43:17.507Z,0.90
2019-01-03T13:45:45.987Z,0.87
2019-01-03T13:48:14.456Z,0.90
2019-01-03T13:50:42.893Z,0.70
2019-01-03T13:53:11.356Z,0.63
2019-01-03T13:55:39.795Z,0.80
2019-01-03T13:58:08.258Z,0.70
2019-01-03T14:00:36.701Z,4.93
2019-01-03T14:03:05.531Z,2.60
2019-01-03T14:05:33.972Z,3.07
2019-01-03T14:08:02.437Z,2.67
2019-01-03T14:10:30.912Z,1.53
2019-01-03T14:12:59.378Z,1.00
2019-01-03T14:15:27.819Z,2.10
2019-01-03T14:17:56.400Z,2.87
2019-01-03T14:20:24.836Z,2.73
2019-01-03T14:22:53.301Z,2.90
2019-01-03T14:25:21.746Z,2.30
2019-01-03T14:27:50.215Z,1.17
2019-01-03T14:30:18.652Z,1.30
2019-01-03T14:32:47.087Z,1.50
2019-01-03T14:35:15.621Z,1.50
2019-01-03T14:37:44.062Z,1.27
2019-01-03T14:40:12.528Z,0.90
2019-01-03T14:42:40.971Z,1.27
2019-01-03T14:45:09.507Z,2.20
2019-01-03T14:47:37.948Z,2.30
2019-01-03T14:50:09.046Z,1.50
2019-01-03T14:52:37.657Z,1.27
2019-01-03T14:55:08.656Z,1.40
2019-01-03T14:57:37.191Z,1.40
2019-01-03T15:00:09.836Z,1.50
2019-01-03T15:02:38.275Z,1.17
2019-01-03T15:05:06.735Z,1.23
2019-01-03T15:07:35.963Z,1.10
2019-01-03T15:10:06.755Z,1.60
2019-01-03T15:12:35.195Z,1.10
2019-01-03T15:15:03.660Z,1.83
2019-01-03T15:17:32.101Z,1.50
2019-01-03T15:20:00.563Z,1.07
2019-01-03T15:22:29.012Z,1.50
2019-01-03T15:24:57.460Z,0.93
2019-01-03T15:27:25.903Z,1.40
2019-01-03T15:29:54.359Z,1.40
2019-01-03T15:32:22.800Z,1.30
2019-01-03T15:34:51.259Z,1.63
2019-01-03T15:37:19.697Z,3.80
2019-01-03T15:39:48.164Z,2.57
2019-01-03T15:42:16.599Z,2.70
2019-01-03T15:44:45.065Z,3.87
2019-01-03T15:47:13.509Z,5.10
2019-01-03T15:49:42.009Z,6.73
2019-01-03T15:52:10.451Z,5.90
2019-01-03T15:54:38.912Z,7.17
2019-01-03T15:57:07.347Z,3.00
2019-01-03T15:59:35.814Z,5.73
2019-01-03T16:02:04.248Z,2.20
2019-01-03T16:04:32.713Z,2.10
2019-01-03T16:07:01.152Z,2.40
2019-01-03T16:09:29.621Z,1.57
2019-01-03T16:11:58.056Z,1.93
2019-01-03T16:14:27.463Z,2.80
2019-01-03T16:16:55.961Z,3.30
2019-01-03T16:19:24.402Z,2.17
2019-01-03T16:21:52.863Z,3.77
2019-01-03T16:24:21.303Z,2.60
2019-01-03T16:26:49.769Z,3.17
2019-01-03T16:29:18.210Z,1.93
2019-01-03T16:31:46.679Z,2.27
2019-01-03T16:34:15.116Z,1.50
2019-01-03T16:36:43.584Z,2.13
2019-01-03T16:39:12.022Z,6.60
2019-01-03T16:41:40.487Z,3.60
2019-01-03T16:44:08.933Z,2.30
2019-01-03T16:46:37.396Z,2.80
2019-01-03T16:49:05.842Z,2.70
2019-01-03T16:51:34.372Z,2.63
2019-01-03T16:54:02.815Z,2.50
2019-01-03T16:56:31.373Z,2.30
2019-01-03T16:58:59.818Z,2.47
2019-01-03T17:01:28.287Z,2.00
2019-01-03T17:03:56.724Z,3.00
2019-01-03T17:06:25.187Z,2.30
2019-01-03T17:08:53.709Z,1.75
2019-01-03T17:11:22.170Z,1.80
2019-01-03T17:13:50.697Z,2.58
2019-01-03T17:16:19.166Z,2.10
2019-01-03T17:18:47.688Z,1.87
2019-01-03T17:21:16.129Z,2.37
2019-01-03T17:23:44.591Z,1.70
2019-01-03T17:26:13.029Z,1.90
2019-01-03T17:28:41.496Z,4.60
2019-01-03T17:31:09.944Z,2.40
2019-01-03T17:33:38.498Z,3.90
2019-01-03T17:36:07.023Z,3.50
2019-01-03T17:38:35.565Z,3.72
2019-01-03T17:41:04.105Z,5.00
2019-01-03T17:43:32.603Z,7.17
2019-01-03T17:46:01.045Z,5.37
2019-01-03T17:48:29.597Z,5.12
2019-01-03T17:50:58.128Z,3.65
2019-01-03T17:53:26.679Z,3.12
2019-01-03T17:55:55.204Z,3.30
2019-01-03T17:58:23.753Z,3.60
2019-01-03T18:00:52.517Z,3.47
2019-01-03T18:03:21.066Z,2.67
2019-01-03T18:05:49.602Z,1.60
2019-01-03T18:08:18.150Z,1.90
2019-01-03T18:10:46.821Z,1.65
2019-01-03T18:13:15.374Z,1.95
2019-01-03T18:15:43.896Z,1.90
2019-01-03T18:18:12.449Z,2.20
2019-01-03T18:20:40.973Z,1.55
2019-01-03T18:23:09.523Z,1.60
2019-01-03T18:25:38.045Z,1.77
2019-01-03T18:28:06.593Z,1.55
2019-01-03T18:30:35.122Z,1.62
2019-01-03T18:33:03.985Z,2.10
2019-01-03T18:35:32.511Z,1.72
2019-01-03T18:38:01.064Z,2.47
2019-01-03T18:40:29.618Z,5.47
2019-01-03T18:42:58.150Z,10.95
2019-01-03T18:45:26.705Z,7.22
2019-01-03T18:47:55.247Z,8.08
2019-01-03T18:50:23.876Z,10.05
2019-01-03T18:52:52.412Z,10.13
2019-01-03T18:55:20.969Z,6.78
2019-01-03T18:57:49.501Z,4.45
2019-01-03T19:00:18.105Z,8.70
2019-01-03T19:02:47.994Z,6.53
2019-01-03T19:05:16.623Z,4.53
2019-01-03T19:07:45.153Z,4.40
2019-01-03T19:10:13.706Z,4.95
2019-01-03T19:12:42.237Z,3.05
2019-01-03T19:15:10.955Z,4.30
2019-01-03T19:17:39.406Z,5.43
2019-01-03T19:20:10.452Z,8.73
2019-01-03T19:22:39.228Z,7.58
2019-01-03T19:25:10.923Z,6.80
2019-01-03T19:27:39.449Z,5.15
2019-01-03T19:30:10.952Z,4.45
2019-01-03T19:32:39.473Z,3.47
2019-01-03T19:35:10.059Z,3.30
2019-01-03T19:37:38.582Z,1.60
2019-01-03T19:40:10.339Z,2.47
2019-01-03T19:42:38.935Z,2.05
2019-01-03T19:45:10.143Z,2.50
2019-01-03T19:47:38.669Z,2.10
2019-01-03T19:50:13.730Z,2.72
2019-01-03T19:52:42.258Z,2.60
2019-01-03T19:55:10.721Z,2.80
2019-01-03T19:57:39.274Z,2.20
2019-01-03T20:00:11.133Z,2.15
2019-01-03T20:02:39.661Z,3.20
2019-01-03T20:05:08.669Z,3.10
2019-01-03T20:07:37.190Z,3.07
2019-01-03T20:10:11.336Z,2.90
2019-01-03T20:12:39.787Z,3.13
2019-01-03T20:15:11.054Z,3.30
2019-01-03T20:17:39.498Z,3.43
2019-01-03T20:20:09.591Z,5.53
2019-01-03T20:22:38.175Z,4.27
2019-01-03T20:25:08.762Z,5.00
2019-01-03T20:27:37.228Z,3.97
2019-01-03T20:30:08.200Z,4.20
2019-01-03T20:32:36.667Z,3.70
2019-01-03T20:35:05.170Z,3.57
2019-01-03T20:37:33.627Z,4.10
2019-01-03T20:40:02.074Z,4.80
2019-01-03T20:42:30.550Z,3.13
2019-01-03T20:44:58.992Z,3.67
2019-01-03T20:47:27.454Z,4.23
2019-01-03T20:49:55.897Z,3.30
2019-01-03T20:52:24.359Z,3.57
2019-01-03T20:54:52.802Z,4.27
2019-01-03T20:57:21.269Z,4.10
2019-01-03T20:59:49.704Z,3.67
2019-01-03T21:02:18.171Z,3.73
2019-01-03T21:04:46.613Z,3.70
2019-01-03T21:07:15.080Z,4.50
2019-01-03T21:09:43.520Z,4.00
2019-01-03T21:12:11.984Z,3.63
2019-01-03T21:14:40.436Z,5.00
2019-01-03T21:17:08.895Z,3.60
2019-01-03T21:19:37.810Z,3.40
2019-01-03T21:22:07.651Z,3.90
2019-01-03T21:24:36.274Z,4.80
2019-01-03T21:27:04.747Z,6.03
2019-01-03T21:29:33.175Z,5.00
2019-01-03T21:32:01.622Z,4.80
2019-01-03T21:34:30.083Z,4.50
2019-01-03T21:36:58.520Z,3.97
2019-01-03T21:39:26.992Z,4.70
2019-01-03T21:41:55.440Z,3.93
2019-01-03T21:44:23.899Z,3.70
2019-01-03T21:46:52.335Z,3.70
2019-01-03T21:49:20.800Z,3.00
2019-01-03T21:51:49.312Z,3.20
2019-01-03T21:54:18.817Z,3.40
2019-01-03T21:56:48.176Z,2.63
2019-01-03T21:59:16.637Z,3.87
2019-01-03T22:01:45.077Z,3.77
2019-01-03T22:04:13.615Z,3.10
2019-01-03T22:06:42.184Z,2.40
2019-01-03T22:09:10.642Z,2.87
2019-01-03T22:11:39.093Z,2.50
2019-01-03T22:14:07.560Z,2.83
2019-01-03T22:16:35.996Z,3.10
2019-01-03T22:19:04.455Z,2.90
2019-01-03T22:21:32.897Z,3.03
2019-01-03T22:24:01.362Z,2.53
2019-01-03T22:26:29.799Z,3.17
2019-01-03T22:28:58.314Z,2.50
2019-01-03T22:31:26.761Z,2.60
2019-01-03T22:33:55.195Z,2.10
2019-01-03T22:36:23.665Z,2.60
2019-01-03T22:38:52.108Z,2.53
2019-01-03T22:41:20.642Z,2.23
2019-01-03T22:43:49.081Z,2.60
2019-01-03T22:46:17.543Z,2.40
2019-01-03T22:48:45.986Z,2.00
2019-01-03T22:51:19.964Z,3.30
2019-01-03T22:53:44.618Z,2.30
2019-01-03T22:56:13.080Z,2.60
2019-01-03T22:58:41.516Z,2.33
2019-01-03T23:01:10.449Z,2.50
2019-01-03T23:03:38.883Z,2.87
2019-01-03T23:06:07.350Z,2.70
2019-01-03T23:08:35.789Z,2.70
2019-01-03T23:11:04.256Z,2.20
2019-01-03T23:13:32.697Z,2.27
2019-01-03T23:16:01.159Z,3.27
2019-01-03T23:18:31.556Z,2.80
2019-01-03T23:20:59.791Z,2.30
2019-01-03T23:23:28.237Z,2.47
2019-01-03T23:25:56.705Z,2.30
2019-01-03T23:28:25.139Z,2.60
2019-01-03T23:30:53.600Z,2.40
2019-01-03T23:33:22.036Z,2.20
2019-01-03T23:35:50.475Z,2.07
2019-01-03T23:38:18.941Z,2.43
2019-01-03T23:40:47.387Z,2.23
2019-01-03T23:43:15.853Z,2.90
2019-01-03T23:45:44.408Z,2.13
2019-01-03T23:48:12.871Z,2.60
2019-01-03T23:50:41.309Z,2.87
2019-01-03T23:53:09.787Z,2.73
2019-01-03T23:55:39.256Z,2.20
2019-01-03T23:58:07.722Z,3.43
